EKSR weather

Stóra Dímun Heliport
Stóra Dímun, Faroe Islands

Public forecast

Using degrees Celsius for public forecast. Weather courtesy of forecast.io.

Closest aviation weather report (METAR) to Stóra Dímun Heliport

Closest report is Vagar Airport, 27.0 nm (50.1 km) NNW. Retrieved 2020/08/04 01:50 UTC (12 minutes ago):

EKVG 040150Z AUTO 25004KT 210V270 9999 FEW010/// OVC025/// 10/08 Q1003

Closest aviation forecast (TAF) to Stóra Dímun Heliport

Forecast is more than 12 hours old.

Closest forecast is Vagar Airport, 27.0 nm (50.1 km) NNW. Retrieved 2017/08/20 00:36 UTC (3 years ago):

TAF TAF EKVG 200034Z 2000/2012 33018KT 9000 FEW007 TEMPO 2003/2006 34025G35KT 4000 DZRA BKN006